Friday, February 23, 2018, 8:13 PM GMT
Back to Local

CYWA, Petawawa, Ont.

Location: , , Canada Lat: 45.95
Local Time: 8:13 PM GMT (20:13 GMT) Lon: -77.317
Time Zone: GMT Elev: 426 ft

Show me the last for .
Show Coded

Time T Td Feel RH Dir Speed Gust Alt SLP Vis Weather Sky Remarks
2018-02-23 19:19 27 23 15 86 140° 15 - 30.05 - 9 OVC009 None
2018-02-23 19:07 27 23 13 86 140° 14 20 30.06 - 7 OVC013 None
2018-02-23 19:04 27 23 13 86 130° 14 20 30.06 - 6 -FZDZ OVC013 None
2018-02-23 19:00 27 23 14 86 140° 16 - 30.07 30.09 5 -FZDZ OVC015 Pressure falling rapidly
2018-02-23 18:53 27 23 14 86 140° 16 - 30.08 - 4 -FZDZ OVC015 None
2018-02-23 18:48 27 23 15 86 130° 14 - 30.08 30.11 3 -FZRA BR OVC017 Pressure falling rapidly
2018-02-23 18:33 27 21 16 79 140° 13 - 30.11 30.13 3 -FZRA BR OVC019 None
2018-02-23 18:00 27 19 15 73 130° 15 - 30.13 30.16 7 -FZRA OVC019 Pressure falling rapidly
2018-02-23 17:11 27 19 14 73 140° 17 - 30.18 30.21 7 -FZDZ OVC023 Pressure falling rapidly
2018-02-23 17:00 27 18 12 68 140° 15 22 30.20 30.22 15 -FZRA OVC023 Pressure falling rapidly
2018-02-23 16:00 27 16 16 63 140° 12 - 30.28 30.31 15 FEW040 BKN085 OVC200 Pressure falling rapidly
2018-02-23 15:00 25 12 11 58 130° 12 17 30.36 30.39 15 OVC088 Pressure falling rapidly
2018-02-23 14:00 25 12 12 58 130° 15 - 30.42 30.45 15 OVC088 None
2018-02-23 13:00 23 16 12 73 130° 12 - 30.46 30.49 15 OVC089 None
2018-02-23 12:00 23 16 15 73 120° 7 - 30.49 30.52 15 BKN089 None
2018-02-23 11:00 23 14 14 67 130° 8 - 30.53 30.56 9 FEW089 None
2018-02-23 10:00 23 14 15 67 120° 7 - 30.56 30.59 9 BKN091 None
2018-02-23 09:00 23 16 16 73 120° 6 - 30.59 30.61 9 OVC091 None
2018-02-23 08:00 23 14 15 67 130° 7 - 30.63 30.65 9 OVC095 None
2018-02-23 07:00 23 16 15 73 110° 7 - 30.65 30.68 9 CLR None
2018-02-23 06:00 21 14 14 73 110° 6 - 30.65 30.68 9 CLR None
2018-02-23 05:00 21 16 - 79 110° 2 - 30.68 30.71 9 CLR None
2018-02-23 04:00 19 14 - 79 - Calm - 30.70 30.73 9 CLR None
2018-02-23 03:00 18 12 - 78 - Calm - 30.70 30.73 9 CLR None
2018-02-23 02:00 18 12 - 78 - Calm - 30.70 30.73 9 CLR None
2018-02-23 01:00 21 12 - 67 - Calm - 30.70 30.73 9 CLR None
2018-02-23 00:00 25 10 - 53 120° 2 - 30.71 30.74 9 FEW099 None
2018-02-22 23:00 27 12 23 53 140° 3 - 30.70 - 9 CLR None
2018-02-22 22:00 27 12 21 53 140° 5 - 30.69 - 9 CLR None
2018-02-22 21:00 28 12 23 50 120° 5 - 30.69 - 9 CLR None

Support USWX by starting your Amazon purchase here.